createdAt,value
2023-05-10T00:00:09.545Z,94086.00
2023-05-10T00:01:09.562Z,94084.00
2023-05-10T00:02:09.675Z,94086.00
2023-05-10T00:03:09.733Z,94084.00
2023-05-10T00:04:09.763Z,94084.00
2023-05-10T00:05:09.863Z,94082.00
2023-05-10T00:06:09.884Z,94086.00
2023-05-10T00:07:09.907Z,94082.00
2023-05-10T00:08:09.977Z,94080.00
2023-05-10T00:09:10.010Z,94080.00
2023-05-10T00:10:10.076Z,94082.00
2023-05-10T00:11:10.120Z,94084.00
2023-05-10T00:12:10.188Z,94082.00
2023-05-10T00:13:10.334Z,94084.00
2023-05-10T00:14:10.300Z,94084.00
2023-05-10T00:15:10.363Z,94082.00
2023-05-10T00:16:10.487Z,94084.00
2023-05-10T00:17:10.515Z,94084.00
2023-05-10T00:18:10.621Z,94084.00
2023-05-10T00:19:10.608Z,94082.00
2023-05-10T00:20:10.670Z,94082.00
2023-05-10T00:21:10.742Z,94084.00
2023-05-10T00:22:10.803Z,94084.00
2023-05-10T00:23:11.223Z,94082.00
2023-05-10T00:24:10.943Z,94082.00
2023-05-10T00:25:11.018Z,94082.00
2023-05-10T00:26:11.058Z,94082.00
2023-05-10T00:27:11.098Z,94082.00
2023-05-10T00:28:11.170Z,94082.00
2023-05-10T00:29:11.197Z,94082.00
2023-05-10T00:30:11.292Z,94082.00
2023-05-10T00:31:11.349Z,94084.00
2023-05-10T00:32:11.433Z,94082.00
2023-05-10T00:33:11.422Z,94084.00
2023-05-10T00:34:11.479Z,94086.00
2023-05-10T00:35:11.480Z,94086.00
2023-05-10T00:36:13.232Z,94084.00
2023-05-10T00:37:11.587Z,94084.00
2023-05-10T00:38:11.657Z,94086.00
2023-05-10T00:39:11.717Z,94084.00
2023-05-10T00:40:11.829Z,94084.00
2023-05-10T00:41:11.827Z,94084.00
2023-05-10T00:42:11.872Z,94084.00
2023-05-10T00:43:11.996Z,94086.00
2023-05-10T00:44:11.988Z,94082.00
2023-05-10T00:45:12.054Z,94084.00
2023-05-10T00:46:12.167Z,94082.00
2023-05-10T00:47:12.151Z,94080.00
2023-05-10T00:48:12.220Z,94082.00
2023-05-10T00:49:12.368Z,94080.00
2023-05-10T00:50:12.361Z,94080.00
2023-05-10T00:51:12.435Z,94080.00
2023-05-10T00:52:12.468Z,94076.00
2023-05-10T00:53:12.534Z,94076.00
2023-05-10T00:54:12.582Z,94078.00
2023-05-10T00:55:12.671Z,94078.00
2023-05-10T00:56:12.718Z,94076.00
2023-05-10T00:57:12.767Z,94074.00
2023-05-10T00:58:12.833Z,94074.00
2023-05-10T00:59:12.946Z,94076.00
2023-05-10T01:00:12.913Z,94074.00
2023-05-10T01:01:13.021Z,94076.00
2023-05-10T01:02:13.078Z,94074.00
2023-05-10T01:03:13.232Z,94074.00
2023-05-10T01:04:13.159Z,94076.00
2023-05-10T01:05:13.268Z,94074.00
2023-05-10T01:06:13.280Z,94074.00
2023-05-10T01:07:13.369Z,94070.00
2023-05-10T01:08:13.350Z,94068.00
2023-05-10T01:09:13.408Z,94070.00
2023-05-10T01:10:13.547Z,94068.00
2023-05-10T01:11:13.496Z,94068.00
2023-05-10T01:12:13.586Z,94068.00
2023-05-10T01:13:13.596Z,94068.00
2023-05-10T01:14:13.670Z,94068.00
2023-05-10T01:15:13.710Z,94068.00
2023-05-10T01:16:13.857Z,94068.00
2023-05-10T01:17:13.841Z,94072.00
2023-05-10T01:18:13.874Z,94068.00
2023-05-10T01:28:28.012Z,94074.00
2023-05-10T01:29:27.991Z,94074.00
2023-05-10T01:30:28.192Z,94074.00
2023-05-10T01:31:28.005Z,94078.00
2023-05-10T01:32:28.055Z,94076.00
2023-05-10T01:33:27.970Z,94076.00
2023-05-10T01:34:27.984Z,94074.00
2023-05-10T01:35:27.962Z,94078.00
2023-05-10T01:36:28.010Z,94076.00
2023-05-10T01:37:27.938Z,94074.00
2023-05-10T01:38:27.920Z,94074.00
2023-05-10T01:39:27.928Z,94080.00
2023-05-10T01:40:27.893Z,94078.00
2023-05-10T01:41:27.905Z,94080.00
2023-05-10T01:42:27.932Z,94082.00
2023-05-10T01:43:27.897Z,94084.00
2023-05-10T01:44:27.866Z,94086.00
2023-05-10T01:45:27.883Z,94082.00
2023-05-10T01:46:27.941Z,94088.00
2023-05-10T01:47:27.892Z,94084.00
2023-05-10T01:48:27.838Z,94090.00
2023-05-10T01:49:27.847Z,94090.00
2023-05-10T01:50:27.827Z,94092.00
2023-05-10T01:51:27.825Z,94092.00
2023-05-10T01:52:27.840Z,94096.00
2023-05-10T01:53:27.835Z,94098.00
2023-05-10T01:54:27.802Z,94099.00
2023-05-10T01:55:27.829Z,94098.00
2023-05-10T01:56:27.809Z,94099.00
2023-05-10T01:57:27.780Z,94099.00
2023-05-10T01:58:27.798Z,94104.00
2023-05-10T01:59:27.801Z,94101.00
2023-05-10T02:00:27.830Z,94107.00
2023-05-10T02:01:27.773Z,94106.00
2023-05-10T02:02:27.855Z,94107.00
2023-05-10T02:03:27.867Z,94106.00
2023-05-10T02:04:27.888Z,94107.00
2023-05-10T02:05:27.985Z,94109.00
2023-05-10T02:06:28.020Z,94111.00
2023-05-10T02:07:28.087Z,94109.00
2023-05-10T02:08:28.087Z,94115.00
2023-05-10T02:09:28.159Z,94109.00
2023-05-10T02:10:28.213Z,94111.00
2023-05-10T02:11:28.168Z,94113.00
2023-05-10T02:12:28.203Z,94113.00
2023-05-10T02:13:28.330Z,94113.00
2023-05-10T02:14:28.270Z,94115.00
2023-05-10T02:15:28.389Z,94117.00
2023-05-10T02:16:28.408Z,94117.00
2023-05-10T02:17:28.399Z,94119.00
2023-05-10T02:18:28.460Z,94121.00
2023-05-10T02:19:28.431Z,94121.00
2023-05-10T02:20:28.446Z,94119.00
2023-05-10T02:21:28.468Z,94121.00
2023-05-10T02:22:28.543Z,94121.00
2023-05-10T02:23:28.562Z,94123.00
2023-05-10T02:24:28.563Z,94123.00
2023-05-10T02:25:28.626Z,94123.00
2023-05-10T02:26:28.665Z,94123.00
2023-05-10T02:27:28.676Z,94125.00
2023-05-10T02:28:28.712Z,94125.00
2023-05-10T02:29:28.721Z,94123.00
2023-05-10T02:30:28.745Z,94125.00
2023-05-10T02:31:28.812Z,94123.00
2023-05-10T02:32:28.922Z,94127.00
2023-05-10T02:33:28.846Z,94123.00
2023-05-10T02:34:28.868Z,94125.00
2023-05-10T02:35:28.888Z,94123.00
2023-05-10T02:36:28.943Z,94127.00
2023-05-10T02:37:28.999Z,94127.00
2023-05-10T02:38:29.048Z,94127.00
2023-05-10T02:39:29.058Z,94129.00
2023-05-10T02:40:29.104Z,94127.00
2023-05-10T02:41:29.141Z,94129.00
2023-05-10T02:42:29.206Z,94125.00
2023-05-10T02:43:29.268Z,94125.00
2023-05-10T02:44:29.361Z,94123.00
2023-05-10T02:45:29.398Z,94125.00
2023-05-10T02:46:29.482Z,94125.00
2023-05-10T02:47:29.553Z,94125.00
2023-05-10T02:48:29.524Z,94125.00
2023-05-10T02:49:29.583Z,94127.00
2023-05-10T02:50:29.574Z,94125.00
2023-05-10T02:51:29.627Z,94125.00
2023-05-10T02:52:29.635Z,94125.00
2023-05-10T02:53:29.725Z,94125.00
2023-05-10T02:54:30.267Z,94123.00
2023-05-10T02:55:29.773Z,94123.00
2023-05-10T02:56:29.836Z,94121.00
2023-05-10T02:57:29.858Z,94121.00
2023-05-10T02:58:29.862Z,94121.00
2023-05-10T02:59:29.974Z,94119.00
2023-05-10T03:00:29.999Z,94117.00
2023-05-10T03:01:30.147Z,94117.00
2023-05-10T03:02:30.147Z,94117.00
2023-05-10T03:03:30.189Z,94117.00
2023-05-10T03:04:30.295Z,94117.00
2023-05-10T03:05:30.360Z,94115.00
2023-05-10T03:06:30.372Z,94119.00
2023-05-10T03:07:30.457Z,94119.00
2023-05-10T03:08:30.484Z,94121.00
2023-05-10T03:09:30.503Z,94121.00
2023-05-10T03:10:30.514Z,94119.00
2023-05-10T03:11:30.551Z,94121.00
2023-05-10T03:12:30.510Z,94121.00
2023-05-10T03:13:30.597Z,94119.00
2023-05-10T03:14:30.524Z,94119.00
2023-05-10T03:15:30.592Z,94119.00
2023-05-10T03:16:30.739Z,94119.00
2023-05-10T03:17:30.601Z,94123.00
2023-05-10T03:18:30.594Z,94123.00
2023-05-10T03:19:30.729Z,94125.00
2023-05-10T03:20:30.627Z,94127.00
2023-05-10T03:21:30.656Z,94127.00
2023-05-10T03:22:30.737Z,94127.00
2023-05-10T03:23:30.695Z,94131.00
2023-05-10T03:24:30.729Z,94131.00
2023-05-10T03:25:30.724Z,94131.00
2023-05-10T03:26:30.744Z,94133.00
2023-05-10T03:27:30.779Z,94133.00
2023-05-10T03:28:30.848Z,94133.00
2023-05-10T03:29:30.861Z,94133.00
2023-05-10T03:30:30.888Z,94135.00
2023-05-10T03:31:30.956Z,94135.00
2023-05-10T03:32:30.952Z,94137.00
2023-05-10T03:33:30.959Z,94137.00
2023-05-10T03:34:31.074Z,94144.00
2023-05-10T03:35:31.083Z,94144.00
2023-05-10T03:36:31.148Z,94146.00
2023-05-10T03:37:31.220Z,94148.00
2023-05-10T03:38:31.295Z,94150.00
2023-05-10T03:39:31.373Z,94152.00
2023-05-10T03:40:31.391Z,94154.00
2023-05-10T03:41:31.404Z,94156.00
2023-05-10T03:42:31.424Z,94158.00
2023-05-10T03:43:31.471Z,94154.00
2023-05-10T03:44:31.509Z,94158.00
2023-05-10T03:45:31.480Z,94156.00
2023-05-10T03:46:31.482Z,94156.00
2023-05-10T03:47:31.533Z,94156.00
2023-05-10T03:48:31.532Z,94160.00
2023-05-10T03:49:31.619Z,94164.00
2023-05-10T03:50:31.664Z,94160.00
2023-05-10T03:51:31.738Z,94160.00
2023-05-10T03:52:31.799Z,94162.00
2023-05-10T03:53:31.863Z,94162.00
2023-05-10T03:54:31.946Z,94162.00
2023-05-10T03:55:31.994Z,94162.00
2023-05-10T03:56:32.095Z,94164.00
2023-05-10T03:57:32.119Z,94166.00
2023-05-10T03:58:32.191Z,94164.00
2023-05-10T03:59:32.294Z,94164.00
2023-05-10T04:00:32.308Z,94162.00
2023-05-10T04:01:32.377Z,94164.00
2023-05-10T04:02:32.519Z,94162.00
2023-05-10T04:03:32.588Z,94162.00
2023-05-10T04:04:32.571Z,94162.00
2023-05-10T04:05:32.632Z,94160.00
2023-05-10T04:06:32.718Z,94160.00
2023-05-10T04:07:32.717Z,94160.00
2023-05-10T04:08:32.717Z,94160.00
2023-05-10T04:09:32.729Z,94162.00
2023-05-10T04:10:32.744Z,94158.00
2023-05-10T04:11:32.782Z,94162.00
2023-05-10T04:12:32.813Z,94162.00
2023-05-10T04:13:32.885Z,94162.00
2023-05-10T04:14:32.954Z,94160.00
2023-05-10T04:15:33.002Z,94160.00
2023-05-10T04:16:33.072Z,94158.00
2023-05-10T04:17:33.081Z,94158.00
2023-05-10T04:18:33.097Z,94160.00
2023-05-10T04:19:33.101Z,94162.00
2023-05-10T04:20:33.105Z,94160.00
2023-05-10T04:21:33.134Z,94158.00
2023-05-10T04:22:33.169Z,94158.00
2023-05-10T04:23:33.217Z,94160.00
2023-05-10T04:24:33.245Z,94158.00
2023-05-10T04:25:33.268Z,94158.00
2023-05-10T04:26:33.299Z,94158.00
2023-05-10T04:27:33.439Z,94160.00
2023-05-10T04:28:33.382Z,94160.00
2023-05-10T04:29:33.754Z,94158.00
2023-05-10T04:30:33.529Z,94160.00
2023-05-10T04:31:33.512Z,94160.00
2023-05-10T04:32:33.606Z,94160.00
2023-05-10T04:33:33.576Z,94160.00
2023-05-10T04:34:33.596Z,94160.00
2023-05-10T04:35:33.623Z,94160.00
2023-05-10T04:36:33.773Z,94158.00
2023-05-10T04:37:33.664Z,94160.00
2023-05-10T04:38:33.747Z,94162.00
2023-05-10T04:39:33.742Z,94162.00
2023-05-10T04:40:33.744Z,94160.00
2023-05-10T04:41:33.817Z,94162.00
2023-05-10T04:42:33.786Z,94164.00
2023-05-10T04:43:33.837Z,94162.00
2023-05-10T04:44:33.920Z,94164.00
2023-05-10T04:45:33.910Z,94168.00
2023-05-10T04:46:34.008Z,94164.00
2023-05-10T04:47:33.959Z,94168.00
2023-05-10T04:48:33.994Z,94166.00
2023-05-10T04:49:34.061Z,94162.00
2023-05-10T04:50:34.120Z,94166.00
2023-05-10T04:51:34.125Z,94168.00
2023-05-10T04:52:34.136Z,94168.00
2023-05-10T04:53:34.164Z,94164.00
2023-05-10T04:54:34.203Z,94170.00
2023-05-10T04:55:34.240Z,94170.00
2023-05-10T04:56:34.257Z,94170.00
2023-05-10T04:57:34.280Z,94170.00
2023-05-10T04:58:34.279Z,94174.00
2023-05-10T04:59:34.381Z,94178.00
2023-05-10T05:00:34.346Z,94180.00
2023-05-10T05:01:34.422Z,94182.00
2023-05-10T05:02:34.504Z,94182.00
2023-05-10T05:03:34.621Z,94180.00
2023-05-10T05:04:34.595Z,94186.00
2023-05-10T05:05:34.649Z,94186.00
2023-05-10T05:06:34.725Z,94186.00
2023-05-10T05:07:34.706Z,94186.00
2023-05-10T05:08:34.757Z,94188.00
2023-05-10T05:09:34.786Z,94191.00
2023-05-10T05:10:34.793Z,94191.00
2023-05-10T05:11:34.820Z,94191.00
2023-05-10T05:12:34.857Z,94193.00
2023-05-10T05:13:34.856Z,94195.00
2023-05-10T05:14:34.938Z,94195.00
2023-05-10T05:15:34.950Z,94195.00
2023-05-10T05:16:35.096Z,94197.00
2023-05-10T05:17:35.024Z,94197.00
2023-05-10T05:18:34.997Z,94199.00
2023-05-10T05:19:35.053Z,94201.00
2023-05-10T05:20:35.089Z,94201.00
2023-05-10T05:21:35.074Z,94207.00
2023-05-10T05:22:35.126Z,94205.00
2023-05-10T05:23:35.131Z,94205.00
2023-05-10T05:24:35.129Z,94203.00
2023-05-10T05:25:35.142Z,94203.00
2023-05-10T05:26:35.311Z,94205.00
2023-05-10T05:27:35.229Z,94205.00
2023-05-10T05:28:35.267Z,94205.00
2023-05-10T05:29:35.320Z,94203.00
2023-05-10T05:30:35.335Z,94201.00
2023-05-10T05:31:35.370Z,94205.00
2023-05-10T05:32:35.417Z,94209.00
2023-05-10T05:33:35.453Z,94209.00
2023-05-10T05:34:35.535Z,94209.00
2023-05-10T05:35:35.528Z,94209.00
2023-05-10T05:36:37.080Z,94209.00
2023-05-10T05:37:35.548Z,94209.00
2023-05-10T05:38:35.593Z,94209.00
2023-05-10T05:39:35.813Z,94211.00
2023-05-10T05:40:35.702Z,94213.00
2023-05-10T05:41:35.696Z,94215.00
2023-05-10T05:42:35.767Z,94215.00
2023-05-10T05:43:37.533Z,94215.00
2023-05-10T05:44:36.042Z,94213.00
2023-05-10T05:45:36.132Z,94217.00
2023-05-10T05:46:36.051Z,94215.00
2023-05-10T05:47:36.141Z,94215.00
2023-05-10T05:48:36.194Z,94215.00
2023-05-10T05:49:36.254Z,94219.00
2023-05-10T05:50:36.318Z,94217.00
2023-05-10T05:51:36.488Z,94217.00
2023-05-10T05:52:36.453Z,94215.00
2023-05-10T05:53:36.448Z,94213.00
2023-05-10T05:54:36.543Z,94211.00
2023-05-10T05:55:36.573Z,94211.00
2023-05-10T05:56:36.636Z,94211.00
2023-05-10T05:57:36.710Z,94213.00
2023-05-10T05:58:36.876Z,94215.00
2023-05-10T05:59:36.848Z,94217.00
2023-05-10T06:00:36.858Z,94217.00
2023-05-10T06:01:37.067Z,94213.00
2023-05-10T06:02:37.089Z,94215.00
2023-05-10T06:03:37.083Z,94215.00
2023-05-10T06:04:37.206Z,94215.00
2023-05-10T06:05:37.800Z,94215.00
2023-05-10T06:06:37.226Z,94215.00
2023-05-10T06:07:37.323Z,94217.00
2023-05-10T06:08:37.349Z,94219.00
2023-05-10T06:09:37.424Z,94221.00
2023-05-10T06:10:37.556Z,94221.00
2023-05-10T06:11:37.506Z,94221.00
2023-05-10T06:12:37.663Z,94219.00
2023-05-10T06:13:37.540Z,94219.00
2023-05-10T06:14:37.673Z,94219.00
2023-05-10T06:15:37.730Z,94219.00
2023-05-10T06:16:37.841Z,94219.00
2023-05-10T06:17:37.770Z,94223.00
2023-05-10T06:18:37.742Z,94225.00
2023-05-10T06:19:37.791Z,94225.00
2023-05-10T06:20:37.795Z,94227.00
2023-05-10T06:21:37.848Z,94227.00
2023-05-10T06:22:37.951Z,94225.00
2023-05-10T06:23:38.007Z,94225.00
2023-05-10T06:24:38.018Z,94225.00
2023-05-10T06:25:38.068Z,94225.00
2023-05-10T06:26:38.144Z,94225.00
2023-05-10T06:27:38.158Z,94227.00
2023-05-10T06:28:38.233Z,94229.00
2023-05-10T06:29:38.227Z,94229.00
2023-05-10T06:30:38.264Z,94229.00
2023-05-10T06:31:38.299Z,94231.00
2023-05-10T06:32:38.413Z,94233.00
2023-05-10T06:33:38.375Z,94227.00
2023-05-10T06:34:38.428Z,94227.00
2023-05-10T06:35:38.433Z,94231.00
2023-05-10T06:36:38.481Z,94229.00
2023-05-10T06:37:38.519Z,94229.00
2023-05-10T06:38:38.685Z,94227.00
2023-05-10T06:39:38.855Z,94227.00
2023-05-10T06:40:40.364Z,94225.00
2023-05-10T06:41:39.302Z,94225.00
2023-05-10T06:42:38.573Z,94227.00
2023-05-10T06:43:38.604Z,94229.00
2023-05-10T06:44:38.859Z,94231.00
2023-05-10T06:45:38.723Z,94233.00
2023-05-10T06:46:38.832Z,94231.00
2023-05-10T06:47:39.540Z,94233.00
2023-05-10T06:48:38.943Z,94227.00
2023-05-10T06:49:38.941Z,94229.00
2023-05-10T06:50:38.981Z,94231.00
2023-05-10T06:51:39.013Z,94229.00
2023-05-10T06:52:39.064Z,94229.00
2023-05-10T06:53:39.088Z,94229.00
2023-05-10T06:54:39.162Z,94227.00
2023-05-10T06:55:39.166Z,94229.00
2023-05-10T06:56:39.195Z,94225.00
2023-05-10T06:57:39.245Z,94223.00
2023-05-10T06:58:39.331Z,94227.00
2023-05-10T06:59:39.373Z,94227.00
2023-05-10T07:00:40.306Z,94225.00
2023-05-10T07:01:39.441Z,94227.00
2023-05-10T07:02:39.403Z,94229.00
2023-05-10T07:03:39.398Z,94227.00
2023-05-10T07:04:39.551Z,94229.00
2023-05-10T07:05:39.632Z,94225.00
2023-05-10T07:06:39.481Z,94227.00
2023-05-10T07:07:39.450Z,94225.00
2023-05-10T07:08:39.466Z,94225.00
2023-05-10T07:09:39.517Z,94225.00
2023-05-10T07:10:39.553Z,94225.00
2023-05-10T07:11:39.525Z,94227.00
2023-05-10T07:12:39.696Z,94223.00
2023-05-10T07:13:39.745Z,94227.00
2023-05-10T07:14:39.634Z,94227.00
2023-05-10T07:15:39.662Z,94227.00
2023-05-10T07:16:39.762Z,94233.00
2023-05-10T07:17:40.430Z,94231.00
2023-05-10T07:18:39.761Z,94231.00
2023-05-10T07:19:39.761Z,94231.00
2023-05-10T07:20:39.800Z,94227.00
2023-05-10T07:21:39.802Z,94229.00
2023-05-10T07:22:39.861Z,94227.00
2023-05-10T07:23:39.903Z,94229.00
2023-05-10T07:24:39.871Z,94231.00
2023-05-10T07:25:39.868Z,94231.00
2023-05-10T07:26:39.926Z,94233.00
2023-05-10T07:27:39.870Z,94233.00
2023-05-10T07:28:40.052Z,94235.00
2023-05-10T07:29:39.986Z,94237.00
2023-05-10T07:30:39.973Z,94235.00
2023-05-10T07:31:39.939Z,94233.00
2023-05-10T07:32:40.418Z,94233.00
2023-05-10T07:33:39.963Z,94235.00
2023-05-10T07:34:40.309Z,94233.00
2023-05-10T07:35:39.936Z,94227.00
2023-05-10T07:36:40.048Z,94231.00
2023-05-10T07:37:39.973Z,94231.00
2023-05-10T07:38:40.985Z,94231.00
2023-05-10T07:39:40.182Z,94231.00
2023-05-10T07:40:40.063Z,94231.00
2023-05-10T07:41:40.081Z,94231.00
2023-05-10T07:42:40.078Z,94233.00
2023-05-10T07:43:40.084Z,94233.00
2023-05-10T07:44:40.132Z,94231.00
2023-05-10T07:45:40.184Z,94233.00
2023-05-10T07:46:40.065Z,94231.00
2023-05-10T07:47:40.136Z,94231.00
2023-05-10T07:48:40.149Z,94233.00
2023-05-10T07:49:40.240Z,94233.00
2023-05-10T07:50:40.171Z,94235.00
2023-05-10T07:51:40.191Z,94233.00
2023-05-10T07:52:40.224Z,94233.00
2023-05-10T07:53:40.312Z,94237.00
2023-05-10T07:54:40.880Z,94233.00
2023-05-10T07:55:40.267Z,94235.00
2023-05-10T07:56:40.301Z,94237.00
2023-05-10T07:57:40.319Z,94240.00
2023-05-10T07:58:40.326Z,94238.00
2023-05-10T07:59:40.364Z,94237.00
2023-05-10T08:00:40.364Z,94238.00
2023-05-10T08:01:40.461Z,94235.00
2023-05-10T08:02:40.608Z,94237.00
2023-05-10T08:03:40.562Z,94238.00
2023-05-10T08:04:40.664Z,94237.00
2023-05-10T08:05:40.663Z,94237.00
2023-05-10T08:06:40.774Z,94237.00
2023-05-10T08:07:40.812Z,94238.00
2023-05-10T08:08:40.940Z,94237.00
2023-05-10T08:09:40.884Z,94237.00
2023-05-10T08:10:40.842Z,94240.00
2023-05-10T08:11:40.929Z,94240.00
2023-05-10T08:12:40.903Z,94240.00
2023-05-10T08:13:40.996Z,94240.00
2023-05-10T08:14:40.984Z,94242.00
2023-05-10T08:15:41.022Z,94244.00
2023-05-10T08:16:41.091Z,94246.00
2023-05-10T08:17:41.079Z,94246.00
2023-05-10T08:18:41.114Z,94244.00
2023-05-10T08:19:41.331Z,94246.00
2023-05-10T08:20:41.176Z,94248.00
2023-05-10T08:21:41.265Z,94246.00
2023-05-10T08:22:41.262Z,94246.00
2023-05-10T08:23:41.338Z,94246.00
2023-05-10T08:24:41.350Z,94246.00
2023-05-10T08:25:41.426Z,94250.00
2023-05-10T08:26:41.490Z,94244.00
2023-05-10T08:27:41.565Z,94244.00
2023-05-10T08:28:41.593Z,94248.00
2023-05-10T08:29:49.574Z,94246.00
2023-05-10T08:30:42.657Z,94244.00
2023-05-10T08:31:41.674Z,94246.00
2023-05-10T08:32:41.679Z,94246.00
2023-05-10T08:33:43.774Z,94246.00
2023-05-10T08:34:41.631Z,94244.00
2023-05-10T08:35:41.626Z,94250.00
2023-05-10T08:36:41.606Z,94246.00
2023-05-10T08:37:41.594Z,94252.00
2023-05-10T08:38:41.581Z,94250.00
2023-05-10T08:39:41.692Z,94250.00
2023-05-10T08:40:41.617Z,94250.00
2023-05-10T08:41:41.579Z,94248.00
2023-05-10T08:42:41.560Z,94248.00
2023-05-10T08:43:41.570Z,94252.00
2023-05-10T08:44:41.557Z,94252.00
2023-05-10T08:45:41.827Z,94250.00
2023-05-10T08:46:41.628Z,94254.00
2023-05-10T08:47:41.589Z,94252.00
2023-05-10T08:48:41.556Z,94252.00
2023-05-10T08:49:41.531Z,94254.00
2023-05-10T08:50:41.864Z,94256.00
2023-05-10T08:51:41.908Z,94260.00
2023-05-10T08:52:41.533Z,94258.00
2023-05-10T08:53:41.496Z,94262.00
2023-05-10T08:54:41.584Z,94264.00
2023-05-10T08:55:41.522Z,94262.00
2023-05-10T08:56:41.554Z,94264.00
2023-05-10T08:57:41.630Z,94262.00
2023-05-10T08:58:41.642Z,94266.00
2023-05-10T08:59:41.699Z,94266.00
2023-05-10T09:00:41.783Z,94264.00
2023-05-10T09:01:41.803Z,94266.00
2023-05-10T09:02:41.871Z,94270.00
2023-05-10T09:03:41.968Z,94268.00
2023-05-10T09:04:42.096Z,94264.00
2023-05-10T09:05:42.028Z,94266.00
2023-05-10T09:06:42.110Z,94266.00
2023-05-10T09:07:42.128Z,94268.00
2023-05-10T09:08:42.189Z,94270.00
2023-05-10T09:09:42.247Z,94268.00
2023-05-10T09:10:42.281Z,94272.00
2023-05-10T09:11:42.343Z,94272.00
2023-05-10T09:12:42.430Z,94274.00
2023-05-10T09:13:42.479Z,94274.00
2023-05-10T09:14:42.510Z,94278.00
2023-05-10T09:15:42.580Z,94278.00
2023-05-10T09:16:42.608Z,94280.00
2023-05-10T09:17:42.695Z,94282.00
2023-05-10T09:18:42.865Z,94284.00
2023-05-10T09:19:42.857Z,94282.00
2023-05-10T09:20:42.805Z,94284.00
2023-05-10T09:21:42.874Z,94284.00
2023-05-10T09:22:42.869Z,94284.00
2023-05-10T09:23:42.950Z,94282.00
2023-05-10T09:24:42.941Z,94284.00
2023-05-10T09:25:43.010Z,94285.00
2023-05-10T09:26:43.051Z,94284.00
2023-05-10T09:27:43.283Z,94287.00
2023-05-10T09:28:43.118Z,94292.00
2023-05-10T09:29:43.177Z,94287.00
2023-05-10T09:30:43.204Z,94292.00
2023-05-10T09:31:43.280Z,94293.00
2023-05-10T09:32:43.921Z,94290.00
2023-05-10T09:33:43.902Z,94292.00
2023-05-10T09:34:43.385Z,94290.00
2023-05-10T09:35:43.438Z,94287.00
2023-05-10T09:36:43.470Z,94287.00
2023-05-10T09:37:43.534Z,94292.00
2023-05-10T09:38:43.481Z,94292.00
2023-05-10T09:39:43.475Z,94293.00
2023-05-10T09:40:43.504Z,94290.00
2023-05-10T09:41:43.469Z,94293.00
2023-05-10T09:42:43.469Z,94287.00
2023-05-10T09:43:43.460Z,94290.00
2023-05-10T09:44:43.488Z,94292.00
2023-05-10T09:45:43.484Z,94290.00
2023-05-10T09:46:43.518Z,94292.00
2023-05-10T09:47:43.528Z,94290.00
2023-05-10T09:48:43.563Z,94292.00
2023-05-10T09:49:43.563Z,94295.00
2023-05-10T09:50:43.880Z,94297.00
2023-05-10T09:51:43.633Z,94295.00
2023-05-10T09:52:43.679Z,94295.00
2023-05-10T09:53:43.778Z,94295.00
2023-05-10T09:54:44.353Z,94293.00
2023-05-10T09:55:43.854Z,94293.00
2023-05-10T09:56:44.087Z,94293.00
2023-05-10T09:57:44.007Z,94292.00
2023-05-10T09:58:43.999Z,94292.00
2023-05-10T09:59:44.040Z,94285.00
2023-05-10T10:00:44.106Z,94287.00
2023-05-10T10:01:44.180Z,94287.00
2023-05-10T10:02:44.171Z,94287.00
2023-05-10T10:03:44.089Z,94287.00
2023-05-10T10:04:44.218Z,94290.00
2023-05-10T10:05:44.087Z,94287.00
2023-05-10T10:06:44.160Z,94285.00
2023-05-10T10:07:44.857Z,94285.00
2023-05-10T10:08:44.149Z,94285.00
2023-05-10T10:09:44.144Z,94285.00
2023-05-10T10:10:44.443Z,94285.00
2023-05-10T10:11:44.200Z,94287.00
2023-05-10T10:12:44.219Z,94284.00
2023-05-10T10:13:44.253Z,94287.00
2023-05-10T10:14:44.264Z,94285.00
2023-05-10T10:15:44.419Z,94285.00
2023-05-10T10:16:59.560Z,94287.00
2023-05-10T10:17:45.955Z,94292.00
2023-05-10T10:18:44.349Z,94293.00
2023-05-10T10:19:44.329Z,94292.00
2023-05-10T10:20:44.292Z,94292.00
2023-05-10T10:21:44.324Z,94293.00
2023-05-10T10:22:44.288Z,94293.00
2023-05-10T10:23:44.491Z,94295.00
2023-05-10T10:24:44.301Z,94295.00
2023-05-10T10:25:44.279Z,94295.00
2023-05-10T10:26:44.255Z,94295.00
2023-05-10T10:27:44.247Z,94292.00
2023-05-10T10:28:44.247Z,94295.00
2023-05-10T10:29:44.226Z,94293.00
2023-05-10T10:30:44.236Z,94297.00
2023-05-10T10:31:44.274Z,94295.00
2023-05-10T10:32:44.245Z,94297.00
2023-05-10T10:33:45.710Z,94299.00
2023-05-10T10:34:44.182Z,94295.00
2023-05-10T10:35:44.214Z,94299.00
2023-05-10T10:36:44.223Z,94297.00
2023-05-10T10:37:44.263Z,94297.00
2023-05-10T10:38:44.177Z,94297.00
2023-05-10T10:39:44.388Z,94295.00
2023-05-10T10:40:44.177Z,94295.00
2023-05-10T10:41:44.163Z,94295.00
2023-05-10T10:42:44.153Z,94292.00
2023-05-10T10:43:44.115Z,94293.00
2023-05-10T10:44:44.233Z,94292.00
2023-05-10T10:45:44.140Z,94293.00
2023-05-10T10:46:44.164Z,94293.00
2023-05-10T10:47:44.120Z,94295.00
2023-05-10T10:48:44.094Z,94293.00
2023-05-10T10:49:44.177Z,94293.00
2023-05-10T10:50:44.071Z,94297.00
2023-05-10T10:51:44.128Z,94293.00
2023-05-10T10:52:44.195Z,94297.00
2023-05-10T10:53:44.080Z,94293.00
2023-05-10T10:54:44.039Z,94295.00
2023-05-10T10:55:44.056Z,94290.00
2023-05-10T10:56:44.051Z,94293.00
2023-05-10T10:57:44.026Z,94292.00
2023-05-10T10:58:44.060Z,94295.00
2023-05-10T10:59:44.061Z,94297.00
2023-05-10T11:00:44.048Z,94297.00
2023-05-10T11:01:43.997Z,94297.00
2023-05-10T11:02:44.058Z,94295.00
2023-05-10T11:03:43.994Z,94295.00
2023-05-10T11:04:44.021Z,94297.00
2023-05-10T11:05:43.976Z,94295.00
2023-05-10T11:06:43.965Z,94292.00
2023-05-10T11:07:43.947Z,94293.00
2023-05-10T11:08:43.969Z,94293.00
2023-05-10T11:09:44.132Z,94290.00
2023-05-10T11:10:43.937Z,94297.00
2023-05-10T11:11:43.969Z,94292.00
2023-05-10T11:12:43.909Z,94293.00
2023-05-10T11:13:44.105Z,94292.00
2023-05-10T11:14:43.941Z,94293.00
2023-05-10T11:15:43.887Z,94292.00
2023-05-10T11:16:44.066Z,94292.00
2023-05-10T11:17:43.937Z,94292.00
2023-05-10T11:18:43.927Z,94290.00
2023-05-10T11:19:43.858Z,94290.00
2023-05-10T11:20:43.867Z,94292.00
2023-05-10T11:21:43.850Z,94290.00
2023-05-10T11:22:43.844Z,94292.00
2023-05-10T11:23:43.842Z,94292.00
2023-05-10T11:24:43.834Z,94293.00
2023-05-10T11:25:43.891Z,94292.00
2023-05-10T11:26:43.821Z,94292.00
2023-05-10T11:27:43.801Z,94293.00
2023-05-10T11:28:43.815Z,94293.00
2023-05-10T11:29:43.827Z,94295.00
2023-05-10T11:30:43.809Z,94292.00
2023-05-10T11:31:43.815Z,94295.00
2023-05-10T11:32:43.798Z,94293.00
2023-05-10T11:33:43.761Z,94297.00
2023-05-10T11:34:43.821Z,94293.00
2023-05-10T11:35:43.939Z,94292.00
2023-05-10T11:36:43.787Z,94292.00
2023-05-10T11:37:43.762Z,94292.00
2023-05-10T11:38:43.746Z,94292.00
2023-05-10T11:39:43.730Z,94290.00
2023-05-10T11:40:43.739Z,94292.00
2023-05-10T11:41:43.720Z,94292.00
2023-05-10T11:42:43.708Z,94292.00
2023-05-10T11:43:43.704Z,94293.00
2023-05-10T11:44:43.690Z,94295.00
2023-05-10T11:45:43.681Z,94293.00
2023-05-10T11:46:43.749Z,94295.00
2023-05-10T11:47:43.725Z,94295.00
2023-05-10T11:48:43.691Z,94297.00
2023-05-10T11:49:43.679Z,94295.00
2023-05-10T11:50:43.637Z,94297.00
2023-05-10T11:51:43.667Z,94297.00
2023-05-10T11:52:43.636Z,94295.00
2023-05-10T11:53:43.657Z,94293.00